Date,TemperatureHighF,TemperatureAvgF,TemperatureLowF,DewpointHighF,DewpointAvgF,DewpointLowF,HumidityHigh,HumidityAvg,HumidityLow,PressureMaxIn,PressureMinIn,WindSpeedMaxMPH,WindSpeedAvgMPH,GustSpeedMaxMPH,PrecipitationSumIn
2013-1-1,32,17,-76,100,10,-7,80,68,32,29.90,29.73,26,4,26,0.35
2013-1-2,46,16,-40,32,8,-92,80,71,3,30.46,28.19,123,2,123,0.00
2013-1-3,30,18,10,9,5,-1,72,58,42,29.78,20.36,76,2,85,0.00
2013-1-4,44,26,13,20,10,2,69,51,38,29.75,29.64,9,4,9,0.04
2013-1-5,28,22,13,22,14,5,81,72,51,29.67,29.55,6,1,6,0.00
2013-1-6,44,31,18,23,18,12,83,62,40,29.61,29.49,10,4,10,0.08
2013-1-7,51,40,33,28,23,17,69,51,40,29.55,29.40,23,8,23,0.00
2013-1-8,57,46,38,31,27,22,66,48,37,29.55,29.37,24,6,24,0.00
2013-1-9,52,40,27,26,20,12,62,44,36,29.37,29.14,34,12,34,0.00
2013-1-10,36,27,20,24,15,8,79,59,41,29.40,29.31,13,4,13,0.00
2013-1-11,36,23,12,14,10,4,78,58,40,29.58,29.40,13,4,13,0.00
2013-1-12,33,17,8,11,4,0,70,58,41,29.67,29.58,12,4,12,0.00
2013-1-13,35,17,3,14,2,-6,64,54,40,29.73,29.67,8,3,8,0.00
2013-1-14,42,24,9,18,7,-2,60,50,39,29.78,29.67,13,4,13,0.00
2013-1-15,50,30,17,25,14,6,71,52,37,29.93,29.78,12,5,12,0.00
2013-1-16,57,36,22,29,16,7,56,45,35,29.93,29.81,12,6,12,0.00
2013-1-17,69,37,23,42,17,-54,57,44,36,29.84,29.73,55,5,55,0.00
2013-1-18,52,35,24,26,15,5,55,44,36,29.78,29.67,139,5,154,0.00
2013-1-19,118,38,-4,100,17,-25,74,45,35,29.75,28.10,71,6,112,0.00
2013-1-20,55,31,20,28,15,7,77,51,36,29.78,29.70,15,2,98,0.00
2013-1-21,55,30,15,28,15,4,80,56,36,29.70,29.55,13,4,13,0.00
2013-1-22,40,24,14,18,13,9,80,65,41,29.58,29.43,10,3,10,0.00
2013-1-23,54,32,23,28,21,16,80,65,37,29.49,29.25,25,4,26,0.00
2013-1-24,58,41,27,32,27,22,93,61,36,29.55,29.46,8,1,8,0.00
2013-1-25,50,43,37,40,34,26,91,71,49,29.52,29.28,14,5,14,0.04
2013-1-26,49,36,-96,100,24,14,95,62,38,31.70,29.28,23,4,40,0.04
2013-1-27,46,33,-76,100,19,14,81,58,38,29.43,29.37,51,4,51,0.24
2013-1-28,100,36,-8,65,20,-48,89,54,2,31.05,28.01,62,7,139,0.00
2013-1-29,86,39,-92,100,23,-38,66,48,2,31.05,29.43,121,6,121,0.00
2013-1-30,86,41,-26,84,25,-38,94,54,3,29.73,28.10,45,5,154,0.00
2013-1-31,69,39,7,60,26,-7,90,63,37,29.73,29.64,45,2,45,0.00
2013-2-1,58,37,-76,100,25,-45,90,64,35,29.73,29.64,166,3,166,0.00
2013-2-2,54,34,-40,32,23,-44,90,66,37,29.73,29.61,47,2,152,0.00
2013-2-3,140,45,29,100,28,21,100,57,35,29.61,29.52,50,4,50,0.00
2013-2-4,57,42,-40,50,23,-58,100,48,35,30.38,29.28,137,4,137,0.00
2013-2-5,54,40,-40,28,22,-50,64,48,36,29.37,29.14,36,5,36,0.00
2013-2-6,51,38,28,26,21,-18,75,52,9,29.43,29.25,50,3,50,0.00
2013-2-7,100,37,-10,100,18,-24,100,47,23,29.40,29.22,67,3,92,0.00
2013-2-8,82,31,17,82,17,11,100,59,37,29.49,29.40,12,3,152,0.00
2013-2-9,64,30,-40,25,17,-51,81,60,37,29.52,29.43,50,2,50,0.00
2013-2-10,54,34,-40,28,20,-57,86,59,36,29.58,27.54,37,2,63,0.00
2013-2-11,55,34,17,29,19,1,90,58,36,29.64,20.36,139,4,154,0.00
2013-2-12,56,38,24,30,23,-62,84,58,2,31.73,27.92,40,4,89,0.00
2013-2-13,70,38,29,58,24,21,82,60,22,29.78,29.67,97,4,134,0.00
2013-2-14,59,38,-76,100,25,-63,91,64,35,29.78,29.73,141,3,141,0.00
2013-2-15,64,41,24,36,27,21,96,64,34,29.78,29.55,63,4,92,0.00
2013-2-16,60,39,27,32,24,-9,92,59,35,29.58,29.43,23,7,67,0.00
2013-2-17,52,36,23,26,18,13,70,49,36,29.49,29.34,13,5,13,0.00
2013-2-18,45,35,23,21,18,15,81,53,38,29.34,29.14,9,1,9,0.00
2013-2-19,50,40,23,25,18,14,69,43,37,29.19,29.02,14,3,14,0.00
2013-2-20,50,32,16,24,17,10,85,56,37,29.28,29.19,20,4,20,0.00
2013-2-21,42,35,25,20,18,16,72,50,39,29.40,29.28,28,7,28,0.00
2013-2-22,49,39,31,27,21,16,74,50,38,29.37,29.10,25,7,25,0.00
2013-2-23,47,34,27,22,16,12,64,47,38,29.34,20.36,23,9,23,0.00
2013-2-24,51,34,19,26,17,12,75,52,37,29.28,20.36,13,4,13,0.00
2013-2-25,48,37,29,30,20,15,81,50,38,30.20,20.36,28,10,28,0.00
2013-2-26,53,44,34,27,20,14,43,38,36,30.23,30.11,36,4,36,0.00
2013-2-27,54,32,-76,100,17,8,80,47,36,30.20,30.14,8,3,8,0.00
2013-2-28,86,49,32,86,32,23,100,54,37,30.35,27.95,135,6,135,0.00
2013-3-1,68,47,-19,38,30,-69,80,55,5,30.38,27.93,148,10,148,0.00
2013-3-2,122,46,34,33,28,24,71,50,35,30.23,30.02,135,11,156,0.00
2013-3-3,82,38,-76,100,19,-57,61,45,36,30.14,20.79,157,15,157,0.00
2013-3-4,58,34,14,30,17,6,79,50,35,30.14,29.90,168,9,168,0.00
2013-3-5,46,35,24,27,18,10,74,50,38,29.90,29.64,15,4,15,0.00
2013-3-6,47,35,24,36,25,18,89,69,41,29.87,29.49,29,4,29,0.00
2013-3-7,57,36,18,29,20,12,82,55,35,29.96,29.87,15,5,15,0.00
2013-3-8,56,37,25,30,23,13,89,60,36,30.11,29.93,17,4,17,0.00
2013-3-9,63,40,17,34,22,11,82,51,34,30.35,30.11,12,4,12,0.00
2013-3-10,67,55,36,36,28,15,42,36,33,30.35,30.26,15,6,15,0.00
2013-3-11,62,55,46,34,32,30,54,42,35,30.23,30.17,16,7,16,0.00
2013-3-12,68,49,32,38,31,22,94,54,33,30.17,30.05,12,4,12,0.00
2013-3-13,72,52,37,40,30,23,67,44,32,30.14,30.05,10,2,10,0.00
2013-3-14,73,52,36,41,31,24,76,49,32,30.11,29.99,18,5,18,0.00
2013-3-15,68,49,34,38,29,23,71,46,33,30.14,30.08,18,6,18,0.00
2013-3-16,59,41,27,32,26,21,90,59,35,30.08,29.87,28,8,28,0.08
2013-3-17,48,37,30,24,17,10,62,44,38,30.14,29.96,28,13,28,0.00
2013-3-18,60,39,21,32,20,12,75,49,35,30.14,30.02,15,5,15,0.00
2013-3-19,53,38,28,40,22,13,93,53,36,30.08,29.73,15,2,15,0.00
2013-3-20,54,45,32,38,27,18,74,50,37,30.02,29.58,31,15,31,0.04
2013-3-21,48,36,30,23,16,11,59,43,38,30.11,20.47,28,10,28,0.00
2013-3-22,48,35,23,23,17,13,80,50,37,30.20,30.08,25,9,25,0.00
2013-3-23,52,35,23,26,18,13,73,52,36,30.20,30.11,13,3,13,0.00
2013-3-24,55,47,38,28,22,16,42,38,36,30.11,30.02,15,7,15,0.00
2013-3-25,56,44,30,29,22,16,61,42,36,30.05,29.84,13,5,13,0.00
2013-3-26,60,47,39,33,27,13,67,47,20,29.93,29.87,166,8,166,0.00
2013-3-27,63,47,30,37,31,24,94,58,34,29.93,29.84,164,12,164,0.00
2013-3-28,67,49,32,43,36,-41,96,66,33,30.08,29.93,156,16,157,0.08
2013-3-29,68,50,32,44,39,-20,94,71,33,30.14,20.70,161,12,161,0.00
2013-3-30,76,65,49,43,37,32,52,37,31,30.17,30.02,17,7,17,0.00
2013-3-31,72,54,32,41,33,27,86,49,32,30.02,29.87,20,6,20,0.00
2013-4-1,73,52,34,41,34,26,88,53,32,30.08,29.93,22,5,22,0.00
2013-4-2,73,51,32,41,33,29,92,55,32,30.11,30.05,20,5,20,0.00
2013-4-3,73,53,29,41,32,25,96,51,32,30.11,29.93,13,4,13,0.00
2013-4-4,67,52,43,41,34,28,92,51,33,29.93,29.70,31,7,31,0.08
2013-4-5,63,50,39,41,33,28,94,57,35,29.93,28.10,45,6,92,0.00
2013-4-6,62,48,42,38,31,26,84,52,35,29.93,29.78,45,7,45,0.08
2013-4-7,50,45,41,33,28,23,64,51,39,29.78,29.61,25,12,45,0.00
2013-4-9,66,58,45,36,31,26,48,36,33,30.23,30.14,14,6,14,0.00
2013-4-10,64,49,40,36,28,22,53,43,35,30.17,30.05,31,9,31,0.00
2013-4-11,62,44,27,33,24,18,75,46,34,30.17,30.05,20,6,20,0.00
2013-4-12,68,45,23,38,25,-46,78,49,33,30.08,29.73,156,9,157,0.00
2013-4-13,86,43,35,57,20,14,46,41,37,29.96,27.92,170,19,170,0.00
2013-4-14,35,33,30,14,14,13,51,45,42,29.96,29.96,112,12,112,0.00
2013-4-15,50,38,31,31,27,23,88,66,40,30.02,29.87,31,7,31,0.00
2013-4-16,51,38,29,32,25,19,92,62,37,30.26,30.02,21,6,21,0.08
2013-4-17,60,42,23,32,24,16,81,52,35,30.35,30.26,15,4,15,0.00
2013-4-18,68,50,31,38,29,21,73,47,33,30.32,30.23,15,5,15,0.00
2013-4-19,59,51,42,39,31,27,73,48,35,30.20,30.08,26,9,26,0.00
2013-4-20,66,50,36,37,29,24,72,46,33,30.20,30.11,20,9,20,0.00
2013-4-21,67,48,29,37,29,23,83,52,33,30.17,30.08,25,8,25,0.00
2013-4-22,60,47,32,33,26,11,72,45,35,30.32,30.17,22,8,22,0.00
2013-4-23,70,46,18,39,23,8,67,42,32,30.32,30.05,24,6,24,0.00
2013-4-24,75,50,24,42,25,8,54,38,31,30.23,29.99,13,4,13,0.00
2013-4-25,80,56,29,46,30,14,56,38,30,30.11,29.96,22,6,22,0.00
2013-4-26,86,61,32,50,35,22,71,40,29,30.20,30.11,15,5,15,0.00
2013-4-27,78,59,34,45,34,23,70,40,31,30.20,30.11,28,9,28,0.00
2013-4-28,70,58,48,39,31,24,41,36,32,30.14,30.02,22,12,22,0.00
2013-4-29,62,53,39,33,28,-24,44,38,5,30.02,24.44,29,12,79,0.00
2013-4-30,61,43,24,33,21,-54,69,42,34,30.29,29.62,21,6,21,0.00
2013-5-1,70,47,20,39,25,-90,76,44,33,30.43,22.77,26,5,34,0.00
2013-5-2,82,58,9,48,31,-19,54,36,26,31.49,30.20,15,5,15,0.00
2013-5-3,77,59,-58,44,31,-76,53,36,31,30.23,30.14,18,6,18,0.00
2013-5-4,73,57,34,41,31,-36,60,39,3,30.14,29.52,25,10,25,0.00
2013-5-5,78,62,44,44,34,-58,41,34,31,29.93,29.75,28,10,34,0.00
2013-5-6,86,67,43,50,38,26,54,35,29,29.87,29.73,27,8,34,0.00
2013-5-7,86,68,48,50,41,31,65,39,29,29.93,29.81,26,7,18,0.00
2013-5-8,89,66,43,55,41,33,74,43,28,30.05,29.93,27,5,34,0.00
2013-5-9,90,68,45,53,42,36,73,41,28,30.11,30.02,26,5,20,0.00
2013-5-10,96,68,46,54,43,36,76,42,27,30.17,30.05,27,5,110,0.04
2013-5-11,113,73,50,73,47,40,80,43,27,30.17,29.99,16,5,16,0.00
2013-5-12,88,71,55,51,44,22,71,39,28,30.08,29.99,27,6,35,0.00
2013-5-13,73,59,46,42,37,29,78,45,33,30.11,29.99,28,9,28,0.00
2013-5-14,75,56,34,42,34,27,84,46,31,30.11,29.99,16,5,45,0.00
2013-5-15,73,55,41,41,32,26,62,43,32,30.05,29.96,20,6,20,0.00
2013-5-16,69,53,40,41,35,30,76,53,33,29.99,29.84,17,4,17,0.04
2013-5-17,66,54,45,41,34,27,78,49,34,30.02,29.90,24,7,24,0.00
2013-5-18,67,50,36,38,31,27,79,50,33,30.17,30.02,23,6,23,0.00
2013-5-19,47,43,37,29,28,26,69,54,48,30.20,30.17,13,5,13,0.00
2013-5-21,43,39,37,22,20,18,49,45,41,29.90,29.84,22,10,22,0.00
2013-5-22,51,41,28,26,22,16,70,47,37,29.90,29.84,16,6,16,0.00
2013-5-24,66,61,50,37,32,26,39,35,33,29.99,29.96,22,12,22,0.00
2013-5-25,73,63,-40,42,37,-58,72,40,31,29.96,29.87,14,6,45,0.00
2013-5-26,71,56,46,49,39,-22,95,58,32,29.99,29.90,24,6,24,0.08
2013-5-27,65,50,38,48,37,32,90,63,35,29.99,29.75,22,6,22,0.20
2013-5-28,72,58,45,40,35,30,69,44,32,29.87,29.75,18,6,18,0.00
2013-5-29,67,55,45,47,37,28,95,55,33,29.96,29.67,33,11,33,0.16
2013-5-30,69,54,35,39,31,25,76,43,33,30.14,29.96,22,8,22,0.00
2013-5-31,78,57,33,45,34,26,86,46,31,30.23,30.14,15,5,15,0.00
2013-6-1,84,64,41,49,38,30,70,40,29,30.17,29.96,18,6,20,0.00
2013-6-2,79,61,42,45,38,28,81,45,31,30.02,29.93,25,7,25,0.00
2013-6-3,83,61,35,48,37,28,79,43,29,30.05,29.96,15,5,15,0.00
2013-6-4,86,66,39,50,37,22,56,35,29,30.08,29.99,16,5,16,0.00
2013-6-5,94,73,46,55,42,28,54,34,27,30.05,29.93,17,6,17,0.00
2013-6-6,96,74,51,56,44,33,59,36,27,30.02,29.90,15,6,15,0.00
2013-6-7,92,73,49,54,43,34,66,36,27,30.05,29.99,28,8,28,0.00
2013-6-8,94,72,46,55,44,36,73,39,27,30.08,29.96,17,6,17,0.00
2013-6-9,90,70,49,53,41,30,55,35,28,30.02,29.87,18,7,18,0.00
2013-6-10,82,56,37,47,32,24,64,41,30,29.93,29.81,15,3,15,0.00
2013-6-15,85,85,85,49,49,49,29,29,29,29.90,29.90,9,7,9,0.00
2013-6-20,73,63,47,41,36,29,54,36,32,30.05,29.96,23,10,23,0.00
2013-6-21,68,56,44,40,34,30,76,46,33,30.08,30.05,16,4,16,0.00
2013-6-22,84,64,37,48,39,30,81,43,29,30.08,29.87,14,5,14,0.00
2013-6-23,70,62,56,55,44,34,89,56,34,29.87,29.70,9,2,9,0.12
2013-6-24,69,58,50,53,44,38,96,65,34,29.75,29.67,9,2,9,0.16
2013-6-25,68,61,54,51,42,36,85,51,34,29.87,29.70,14,5,14,0.00
2013-6-26,75,62,52,48,44,41,83,55,33,30.05,29.87,12,4,12,0.00
2013-6-27,91,71,48,54,47,43,88,48,28,30.17,30.05,15,5,17,0.00
2013-6-28,99,78,55,58,51,45,80,42,26,30.20,30.02,17,6,17,0.00
2013-6-29,95,79,61,56,50,43,69,38,27,30.08,29.96,15,6,15,0.00
2013-6-30,101,82,58,59,50,42,62,36,25,30.05,29.87,22,7,22,0.00
2013-7-1,104,87,71,61,52,43,42,30,25,30.02,29.93,17,7,17,0.00
2013-7-2,107,86,63,63,54,46,68,36,24,30.05,29.96,21,6,21,0.00
2013-7-3,98,80,61,57,49,39,62,36,26,30.08,29.96,21,6,21,0.00
2013-7-4,91,73,50,53,42,30,50,34,28,30.02,29.90,22,7,22,0.00
2013-7-5,86,66,43,50,39,30,67,38,29,29.96,29.84,20,6,20,0.00
2013-7-6,90,67,39,52,38,22,58,35,28,29.93,29.78,18,6,18,0.00
2013-7-7,95,73,49,56,44,32,66,37,27,29.90,29.78,20,6,20,0.00
2013-7-8,92,73,47,54,44,34,72,38,27,30.02,29.90,15,5,15,0.00
2013-7-9,101,78,51,59,46,34,57,34,25,30.08,29.93,17,5,17,0.00
2013-7-10,99,78,56,58,47,38,56,35,26,30.02,29.87,24,7,24,0.00
2013-7-11,90,71,52,52,42,32,56,35,28,29.96,29.87,18,6,20,0.00
2013-7-12,87,66,43,51,37,24,49,35,29,30.02,29.90,22,7,22,0.00
2013-7-13,86,67,42,50,39,28,62,37,29,30.11,29.99,17,6,17,0.00
2013-7-14,97,73,44,57,41,8,43,32,26,30.11,29.93,18,5,32,0.00
2013-7-15,94,75,51,55,43,28,43,32,27,29.99,29.84,21,8,21,0.00
2013-7-16,90,74,56,52,42,30,37,31,28,29.93,29.84,17,8,17,0.00
2013-7-17,96,76,49,57,44,32,53,33,27,30.11,29.93,17,6,17,0.00
2013-7-18,99,77,49,58,45,32,58,34,26,30.14,29.99,18,6,18,0.00
2013-7-19,100,78,49,59,45,27,49,32,26,30.08,29.93,20,6,20,0.00
2013-7-20,101,77,48,59,44,25,45,31,25,29.99,29.87,20,6,20,0.00
2013-7-21,104,76,44,61,43,21,42,31,25,29.93,29.84,17,6,17,0.00
2013-7-22,102,77,48,59,45,30,51,33,25,29.99,29.90,17,5,17,0.00
2013-7-23,102,78,48,60,44,25,46,31,25,30.02,29.90,18,6,18,0.00
2013-7-24,102,79,57,60,45,30,38,31,25,30.05,29.96,16,5,16,0.00
2013-7-25,104,80,52,61,46,30,46,31,25,30.05,29.96,22,6,22,0.00
2013-7-26,103,80,57,60,46,30,35,30,25,30.11,29.99,20,6,20,0.00
2013-7-27,94,73,47,55,41,25,45,32,27,30.11,29.93,17,6,17,0.00
2013-7-28,91,70,46,54,40,26,50,34,28,29.96,29.87,22,6,163,0.00
2013-7-29,92,69,43,54,41,29,66,37,27,29.96,29.87,17,6,17,0.00
2013-7-30,94,72,47,55,43,33,62,37,27,30.08,29.96,13,5,13,0.00
2013-7-31,89,71,57,52,41,34,46,35,28,30.08,29.93,18,5,18,0.00
2013-8-1,82,63,55,55,45,34,92,56,30,30.05,29.93,29,8,29,0.08
2013-8-2,86,64,44,50,40,34,76,43,29,30.08,29.96,22,6,22,0.00
2013-8-3,91,69,44,54,43,34,76,41,27,30.08,29.96,17,5,17,0.00
2013-8-4,96,75,51,57,44,35,58,35,27,30.05,29.90,18,6,18,0.00
2013-8-5,97,76,54,57,45,33,48,33,26,30.02,29.90,17,6,17,0.00
2013-8-6,99,76,50,58,46,35,63,35,26,30.02,29.90,20,5,20,0.00
2013-8-7,91,74,53,53,42,31,47,33,28,30.02,29.93,25,7,25,0.00
2013-8-8,93,76,56,54,44,34,46,33,27,29.99,29.87,21,5,21,0.00
2013-8-9,94,72,59,55,43,38,59,36,27,29.96,29.84,29,5,29,0.00
2013-8-10,85,63,46,49,42,38,88,52,29,30.02,29.93,23,5,23,0.00
2013-8-11,87,67,48,51,43,38,75,44,29,30.05,29.93,18,5,18,0.00
2013-8-12,92,71,50,54,45,38,73,42,27,30.02,29.93,23,6,23,0.00
2013-8-13,95,73,48,56,45,38,73,40,27,30.08,29.93,16,5,16,0.00
2013-8-14,97,75,52,57,44,35,57,35,27,29.99,29.87,17,6,17,0.00
2013-8-15,95,73,51,56,44,36,59,37,27,29.99,29.87,22,6,22,0.00
2013-8-16,92,74,58,54,47,41,64,40,27,30.02,29.96,17,6,17,0.00
2013-8-17,71,60,54,49,45,41,78,58,37,30.05,30.02,6,2,6,0.00
2013-8-20,90,82,62,53,47,33,34,30,28,30.05,29.96,15,7,15,0.00
2013-8-21,91,70,49,54,39,25,42,33,27,30.05,29.90,14,5,14,0.00
2013-8-22,85,66,54,56,42,29,75,44,29,29.96,29.90,24,4,24,0.00
2013-8-23,89,70,52,52,46,40,77,45,28,29.93,29.81,17,7,17,0.00
2013-8-24,87,67,51,51,45,40,72,48,29,29.90,29.78,22,4,22,0.04
2013-8-25,81,60,50,57,49,40,95,69,30,29.93,29.81,17,7,17,0.43
2013-8-26,82,64,49,52,45,39,96,57,30,29.96,29.90,13,13,13,0.00
2013-8-27,88,67,46,51,45,39,91,51,28,29.96,29.78,13,13,13,0.00
2013-8-28,92,72,52,54,47,42,81,45,27,29.90,29.81,13,13,13,0.00
2013-8-29,86,70,58,50,46,42,72,45,29,30.05,29.90,13,13,13,0.00
2013-8-30,89,70,50,52,46,40,91,48,28,30.14,29.99,13,13,13,0.00
2013-8-31,91,72,50,54,47,39,84,44,28,30.05,29.84,13,13,13,0.00
2013-9-1,98,75,52,57,46,38,67,37,26,29.90,29.75,13,13,13,0.00
2013-9-2,92,70,51,53,45,41,72,43,27,29.93,29.81,13,13,13,0.00
2013-9-3,91,68,49,53,45,40,84,47,28,29.99,29.87,13,13,13,0.00
2013-9-4,91,68,47,54,44,40,82,47,28,30.02,29.90,13,13,13,0.00
2013-9-5,80,60,49,47,41,36,81,52,30,30.05,29.87,13,13,13,0.00
2013-9-6,66,54,50,53,43,38,94,71,38,30.11,30.02,13,13,13,0.04
2013-9-7,82,74,60,48,44,39,48,34,29,30.05,29.96,13,0,0,0.04
2013-9-8,82,65,46,47,42,34,77,46,30,30.08,29.99,0,0,0,0.00
2013-9-9,91,68,44,53,42,34,78,42,28,30.05,29.93,0,0,0,0.00
2013-9-10,92,71,47,54,42,33,66,37,27,29.99,29.87,0,0,0,0.00
2013-9-11,93,72,48,54,43,33,64,36,27,30.05,29.93,0,0,0,0.00
2013-9-12,95,75,50,56,44,34,58,34,27,30.02,29.90,0,0,0,0.00
2013-9-13,90,70,50,52,41,32,53,35,28,29.93,29.81,0,0,0,0.00
2013-9-14,94,71,48,55,45,36,83,43,27,29.87,29.75,0,0,0,0.00
2013-9-15,70,64,60,40,39,38,45,40,35,29.78,29.75,0,0,0,0.00
2013-9-21,70,59,48,39,34,32,56,40,32,29.75,29.67,0,0,0,0.00
2013-9-22,48,43,40,34,32,30,78,66,55,29.78,29.75,0,0,0,0.00
2013-9-27,66,56,51,44,38,31,77,52,33,30.05,29.93,0,0,0,0.00
2013-9-28,66,57,47,47,39,34,84,54,35,29.93,29.58,0,0,0,0.31
2013-9-29,58,50,43,48,36,27,86,62,37,29.73,29.49,0,0,0,0.35
2013-9-30,64,50,38,46,30,24,80,48,34,29.93,29.55,0,0,0,0.56
2013-10-1,73,26,-16,41,2,-55,84,41,11,30.11,29.93,25,1,25,0.04
2013-10-2,73,46,26,41,29,21,83,56,32,30.11,29.93,2,2,25,0.00
2013-10-3,58,46,30,33,29,25,88,56,35,30.32,30.02,25,2,25,0.04
2013-10-4,64,44,25,35,27,22,90,56,33,30.38,30.29,25,2,25,0.00
2013-10-5,78,53,28,45,32,22,83,49,30,30.32,30.14,25,5,74,0.00
2013-10-6,81,55,31,47,33,23,80,46,30,30.14,29.93,74,6,74,0.00
2013-10-7,58,40,-42,57,24,-57,100,55,36,29.99,29.87,74,6,74,0.00
2013-10-8,140,42,-42,100,24,-57,100,55,18,29.99,29.84,6,6,74,0.00
2013-10-9,53,43,34,30,28,26,81,57,38,29.96,27.23,137,6,137,0.00
2013-10-10,65,42,-42,35,24,-44,86,52,33,27.29,27.20,80,4,80,0.00
2013-10-11,61,40,-40,33,23,-54,91,57,2,27.34,27.29,78,4,159,0.00
2013-10-12,54,42,32,32,28,22,80,58,37,27.37,27.26,10,3,67,0.00
2013-10-13,58,49,35,36,32,27,75,55,36,27.52,27.37,50,5,134,0.00
2013-10-14,72,43,24,32,25,18,85,54,17,27.58,27.52,67,5,67,0.00
2013-10-15,66,44,-76,100,25,16,75,49,33,27.58,27.37,40,3,40,0.00
2013-10-16,68,44,-40,38,26,-44,80,50,33,27.37,27.32,142,8,156,0.00
2013-10-17,68,45,26,37,26,19,100,50,33,27.43,27.37,13,3,13,0.00
2013-10-18,68,45,24,38,27,18,81,52,33,27.46,27.34,9,3,9,0.00
2013-10-19,81,51,27,46,30,21,84,49,30,27.37,27.26,10,4,10,0.00
2013-10-20,75,50,27,43,28,19,75,46,31,27.37,27.29,12,3,12,0.00
2013-10-21,77,51,30,44,30,21,76,47,31,27.37,27.29,12,3,12,0.00
2013-10-22,76,51,28,44,30,22,82,49,31,27.34,27.23,12,3,12,0.00
2013-10-23,73,49,30,42,30,23,87,52,31,27.29,27.20,13,4,13,0.00
2013-10-24,72,48,28,41,30,23,88,54,32,27.29,27.20,10,3,10,0.00
2013-10-25,75,50,30,42,32,24,93,54,31,27.40,27.29,12,4,12,0.00
2013-10-26,72,47,28,40,29,23,88,53,32,27.43,27.26,13,4,13,0.00
2013-10-27,56,40,29,42,32,25,96,74,38,27.29,26.96,20,7,20,0.16
2013-10-28,42,38,32,41,22,14,95,55,40,27.20,27.02,26,11,26,0.04
2013-10-29,53,36,23,27,18,12,72,49,36,27.20,27.08,8,3,8,0.00
2013-10-30,63,40,22,34,24,17,81,55,34,27.29,27.17,13,4,13,0.00
2013-10-31,64,48,37,39,31,23,78,53,37,27.40,27.29,17,5,17,0.00
2013-11-1,131,44,30,100,31,-23,98,66,5,27.40,27.14,143,4,143,0.00
2013-11-2,51,42,-24,37,28,-36,87,59,30,27.20,27.02,137,10,118,0.00
2013-11-3,47,37,30,27,23,10,79,57,38,27.23,27.14,118,5,118,0.00
2013-11-4,56,41,7,29,22,-7,66,48,36,27.26,27.20,156,6,156,0.00
2013-11-5,53,43,-40,38,31,-51,81,62,46,27.34,27.23,45,5,134,0.00
2013-11-6,139,47,-76,100,36,11,96,68,14,27.40,27.32,31,3,156,0.00
2013-11-7,137,46,32,100,32,12,86,60,41,27.32,27.05,71,7,115,0.08
2013-11-8,49,41,33,28,24,20,73,52,38,27.29,27.23,12,2,112,0.00
2013-11-9,47,36,26,32,26,20,88,69,44,27.23,27.20,6,1,6,0.00
2013-11-10,61,43,32,36,31,28,92,66,36,27.29,27.20,8,2,8,0.00
2013-11-11,45,41,35,40,34,30,94,77,56,27.40,27.29,8,1,8,0.00
2013-11-12,65,47,39,37,35,32,83,65,35,27.49,27.32,13,2,13,0.00
2013-11-13,61,42,29,36,29,22,96,64,35,27.55,27.37,9,2,9,0.00
2013-11-14,51,35,25,26,22,18,88,62,37,27.37,27.17,16,5,16,0.00
2013-11-15,47,34,18,26,19,12,82,57,38,27.17,26.69,21,5,21,0.00
2013-11-16,49,42,39,24,22,19,51,44,38,26.96,26.96,29,12,29,0.00
2013-11-17,58,42,29,31,23,16,71,48,35,27.14,27.02,12,3,12,0.00
2013-11-18,53,42,31,29,25,20,73,53,37,27.11,26.93,21,6,21,0.00
2013-11-19,52,47,42,41,34,27,87,63,46,26.99,26.99,20,6,20,0.04
2013-11-20,43,32,17,39,15,-1,87,48,39,27.46,27.02,16,9,16,0.00
2013-11-21,38,21,8,15,2,-9,49,44,39,27.70,27.46,10,4,10,0.00
2013-11-22,39,20,5,16,2,-10,55,46,39,27.73,27.61,12,3,12,0.00
2013-11-23,42,21,5,18,4,-8,63,49,39,27.61,27.37,6,2,6,0.00
2013-11-24,57,27,7,30,10,-4,71,48,35,27.40,27.29,10,3,10,0.00
2013-11-25,51,28,11,26,11,2,71,51,37,27.46,27.37,8,2,8,0.00
2013-11-26,48,28,14,24,12,6,73,54,37,27.37,27.20,6,2,6,0.00
2013-11-27,44,29,19,21,14,10,71,56,39,27.23,27.11,8,2,8,0.00
2013-11-28,54,29,12,27,14,4,77,56,36,27.20,27.11,8,2,8,0.00
2013-11-29,60,37,17,32,20,10,82,54,35,27.26,27.20,147,4,147,0.31
2013-11-30,60,43,-76,100,25,-79,85,51,3,27.32,27.20,110,5,112,0.83
2013-12-1,65,52,10,36,29,-63,63,43,2,27.20,26.84,125,11,141,0.31
2013-12-2,52,40,29,39,27,13,86,62,39,29.91,27.20,28,7,28,0.31
2013-12-3,30,23,14,21,9,-1,80,57,42,30.12,29.88,22,6,22,0.00
2013-12-4,27,14,3,7,-3,-12,54,46,42,30.18,30.09,90,4,90,0.00
2013-12-5,32,12,-2,16,-4,-18,55,47,42,30.15,30.00,9,2,9,0.00
2013-12-6,32,12,10,18,0,-3,61,58,55,30.03,29.88,72,6,72,0.00
2013-12-7,16,4,-21,3,-10,-35,61,52,44,30.24,29.91,20,6,20,0.00
2013-12-8,21,-1,-21,2,-18,-36,45,45,43,30.41,30.20,62,3,130,0.00
2013-12-9,33,14,-3,12,-4,-19,52,45,41,30.41,30.26,15,4,15,0.00
2013-12-10,36,20,5,26,4,-10,80,51,41,30.29,30.24,7,1,7,0.00
2013-12-11,43,26,-4,20,11,-22,77,55,39,30.26,30.18,6,2,7,0.04
2013-12-12,41,31,21,18,13,6,56,46,39,30.18,30.03,13,4,13,0.00
2013-12-13,50,35,24,26,20,15,82,56,38,30.35,30.12,34,3,45,0.00
2013-12-14,50,36,25,25,22,19,83,58,38,30.35,30.29,100,5,100,0.00
2013-12-15,60,42,30,32,25,19,91,51,35,30.32,30.26,10,2,10,0.00
2013-12-16,57,37,23,30,23,18,90,61,35,30.35,30.24,7,2,7,0.00
2013-12-17,60,42,32,32,21,15,59,45,35,30.24,30.03,10,4,10,0.00
2013-12-18,43,35,30,31,23,19,80,62,46,30.06,29.88,10,1,10,0.00
2013-12-19,39,29,17,26,11,5,80,48,39,30.15,29.94,13,1,13,0.00
2013-12-20,45,32,18,32,16,5,76,53,43,30.09,29.76,25,7,25,0.00
2013-12-21,56,46,40,29,26,24,55,46,36,30.09,29.79,28,9,28,0.00
2013-12-22,58,43,36,31,27,24,66,53,36,30.26,30.09,13,3,13,0.00
2013-12-23,56,43,36,31,26,23,67,52,38,30.35,30.18,23,6,23,0.00
2013-12-24,51,34,23,26,21,18,85,62,37,30.44,30.35,10,2,10,0.00
2013-12-25,53,36,-40,27,20,-57,77,53,36,30.38,30.26,9,4,9,0.00
2013-12-26,61,40,-40,33,21,-57,86,48,35,30.29,27.94,10,4,10,0.04
2013-12-27,48,38,30,23,18,14,59,45,38,30.20,30.09,15,4,15,0.00
2013-12-28,52,32,18,26,18,11,82,58,36,30.35,30.20,6,1,6,0.00
2013-12-29,50,32,20,26,15,-35,80,51,3,30.35,30.18,8,3,8,0.04
2013-12-30,56,40,-40,37,19,-52,54,44,37,30.20,30.09,10,3,10,0.00
2013-12-31,52,42,34,26,20,17,53,43,36,30.24,30.12,13,2,13,0.00
2014-1-1,56,36,23,29,22,17,83,59,36,30.29,30.20,9,1,9,0.04
2014-1-2,91,40,-4,91,24,-9,100,57,35,30.24,29.97,12,4,12,0.00